sensor_id;sensor_type;location;lat;lon;timestamp;P1;durP1;ratioP1;P2;durP2;ratioP2
31402;SDS011;18039;52.188;21.024;2022-09-03T00:00:16;5.75;;;2.83;;
31402;SDS011;18039;52.188;21.024;2022-09-03T00:03:10;5.05;;;2.28;;
31402;SDS011;18039;52.188;21.024;2022-09-03T00:08:24;6.47;;;2.53;;
31402;SDS011;18039;52.188;21.024;2022-09-03T00:11:01;5.93;;;3.13;;
31402;SDS011;18039;52.188;21.024;2022-09-03T00:13:39;9.20;;;3.33;;
31402;SDS011;18039;52.188;21.024;2022-09-03T00:16:11;4.82;;;2.75;;
31402;SDS011;18039;52.188;21.024;2022-09-03T00:18:42;7.05;;;2.90;;
31402;SDS011;18039;52.188;21.024;2022-09-03T00:21:16;6.90;;;2.60;;
31402;SDS011;18039;52.188;21.024;2022-09-03T00:23:50;9.32;;;3.30;;
31402;SDS011;18039;52.188;21.024;2022-09-03T00:26:21;8.98;;;3.00;;
31402;SDS011;18039;52.188;21.024;2022-09-03T00:28:55;11.25;;;3.83;;
31402;SDS011;18039;52.188;21.024;2022-09-03T00:31:31;6.88;;;3.00;;
31402;SDS011;18039;52.188;21.024;2022-09-03T00:34:09;4.68;;;3.05;;
31402;SDS011;18039;52.188;21.024;2022-09-03T00:36:41;11.75;;;3.67;;
31402;SDS011;18039;52.188;21.024;2022-09-03T00:39:14;8.32;;;3.80;;
31402;SDS011;18039;52.188;21.024;2022-09-03T00:44:30;6.65;;;2.85;;
31402;SDS011;18039;52.188;21.024;2022-09-03T00:47:06;6.25;;;3.53;;
31402;SDS011;18039;52.188;21.024;2022-09-03T00:49:56;11.18;;;3.40;;
31402;SDS011;18039;52.188;21.024;2022-09-03T00:52:54;10.90;;;4.47;;
31402;SDS011;18039;52.188;21.024;2022-09-03T00:55:37;9.10;;;3.80;;
31402;SDS011;18039;52.188;21.024;2022-09-03T00:58:12;8.57;;;4.05;;
31402;SDS011;18039;52.188;21.024;2022-09-03T01:01:22;9.68;;;3.40;;
31402;SDS011;18039;52.188;21.024;2022-09-03T01:11:58;8.82;;;3.30;;
31402;SDS011;18039;52.188;21.024;2022-09-03T01:17:26;8.18;;;3.83;;
31402;SDS011;18039;52.188;21.024;2022-09-03T01:20:07;8.95;;;3.88;;
31402;SDS011;18039;52.188;21.024;2022-09-03T01:28:14;9.38;;;3.20;;
31402;SDS011;18039;52.188;21.024;2022-09-03T01:30:55;7.35;;;3.42;;
31402;SDS011;18039;52.188;21.024;2022-09-03T01:33:39;10.40;;;3.72;;
31402;SDS011;18039;52.188;21.024;2022-09-03T01:36:31;10.02;;;3.35;;
31402;SDS011;18039;52.188;21.024;2022-09-03T01:39:05;9.30;;;3.47;;
31402;SDS011;18039;52.188;21.024;2022-09-03T01:41:47;9.95;;;4.65;;
31402;SDS011;18039;52.188;21.024;2022-09-03T01:47:31;8.60;;;4.00;;
31402;SDS011;18039;52.188;21.024;2022-09-03T01:58:34;7.60;;;3.15;;
31402;SDS011;18039;52.188;21.024;2022-09-03T02:01:10;7.45;;;3.15;;
31402;SDS011;18039;52.188;21.024;2022-09-03T02:03:43;7.25;;;3.65;;
31402;SDS011;18039;52.188;21.024;2022-09-03T02:06:11;8.60;;;3.90;;
31402;SDS011;18039;52.188;21.024;2022-09-03T02:08:38;8.32;;;3.70;;
31402;SDS011;18039;52.188;21.024;2022-09-03T02:11:06;7.85;;;3.28;;
31402;SDS011;18039;52.188;21.024;2022-09-03T02:13:40;7.45;;;3.97;;
31402;SDS011;18039;52.188;21.024;2022-09-03T02:16:14;7.53;;;3.40;;
31402;SDS011;18039;52.188;21.024;2022-09-03T02:18:44;9.68;;;3.97;;
31402;SDS011;18039;52.188;21.024;2022-09-03T02:21:19;7.05;;;3.90;;
31402;SDS011;18039;52.188;21.024;2022-09-03T02:23:48;9.55;;;3.20;;
31402;SDS011;18039;52.188;21.024;2022-09-03T02:26:19;7.35;;;3.40;;
31402;SDS011;18039;52.188;21.024;2022-09-03T02:28:49;7.75;;;3.20;;
31402;SDS011;18039;52.188;21.024;2022-09-03T02:31:17;8.02;;;3.90;;
31402;SDS011;18039;52.188;21.024;2022-09-03T02:33:45;5.80;;;3.25;;
31402;SDS011;18039;52.188;21.024;2022-09-03T02:36:16;6.72;;;3.42;;
31402;SDS011;18039;52.188;21.024;2022-09-03T02:38:46;8.13;;;3.50;;
31402;SDS011;18039;52.188;21.024;2022-09-03T02:41:13;6.72;;;3.67;;
31402;SDS011;18039;52.188;21.024;2022-09-03T02:46:14;6.78;;;3.22;;
31402;SDS011;18039;52.188;21.024;2022-09-03T02:48:47;8.48;;;3.47;;
31402;SDS011;18039;52.188;21.024;2022-09-03T02:51:14;7.30;;;3.40;;
31402;SDS011;18039;52.188;21.024;2022-09-03T02:53:41;7.38;;;3.00;;
31402;SDS011;18039;52.188;21.024;2022-09-03T02:56:09;8.70;;;3.63;;
31402;SDS011;18039;52.188;21.024;2022-09-03T02:58:37;8.32;;;3.58;;
31402;SDS011;18039;52.188;21.024;2022-09-03T03:01:04;8.40;;;3.17;;
31402;SDS011;18039;52.188;21.024;2022-09-03T03:03:31;6.85;;;3.38;;
31402;SDS011;18039;52.188;21.024;2022-09-03T03:06:02;7.07;;;3.60;;
31402;SDS011;18039;52.188;21.024;2022-09-03T03:08:31;8.10;;;3.25;;
31402;SDS011;18039;52.188;21.024;2022-09-03T03:11:00;7.85;;;2.92;;
31402;SDS011;18039;52.188;21.024;2022-09-03T03:13:28;10.43;;;3.75;;
31402;SDS011;18039;52.188;21.024;2022-09-03T03:15:59;8.88;;;3.50;;
31402;SDS011;18039;52.188;21.024;2022-09-03T03:18:28;8.75;;;3.35;;
31402;SDS011;18039;52.188;21.024;2022-09-03T03:20:55;7.45;;;3.17;;
31402;SDS011;18039;52.188;21.024;2022-09-03T03:23:22;7.00;;;3.33;;
31402;SDS011;18039;52.188;21.024;2022-09-03T03:25:49;6.88;;;3.40;;
31402;SDS011;18039;52.188;21.024;2022-09-03T03:28:16;9.43;;;4.25;;
31402;SDS011;18039;52.188;21.024;2022-09-03T03:30:44;5.70;;;2.97;;
31402;SDS011;18039;52.188;21.024;2022-09-03T03:33:14;7.40;;;3.40;;
31402;SDS011;18039;52.188;21.024;2022-09-03T03:35:41;6.80;;;3.38;;
31402;SDS011;18039;52.188;21.024;2022-09-03T03:38:08;6.13;;;3.00;;
31402;SDS011;18039;52.188;21.024;2022-09-03T03:40:36;9.93;;;3.20;;
31402;SDS011;18039;52.188;21.024;2022-09-03T03:43:04;6.65;;;2.95;;
31402;SDS011;18039;52.188;21.024;2022-09-03T03:45:31;7.22;;;2.85;;
31402;SDS011;18039;52.188;21.024;2022-09-03T03:47:59;6.22;;;2.97;;
31402;SDS011;18039;52.188;21.024;2022-09-03T03:50:26;10.55;;;3.47;;
31402;SDS011;18039;52.188;21.024;2022-09-03T03:52:53;6.72;;;3.60;;
31402;SDS011;18039;52.188;21.024;2022-09-03T03:55:20;10.82;;;3.05;;
31402;SDS011;18039;52.188;21.024;2022-09-03T03:57:52;5.38;;;2.88;;
31402;SDS011;18039;52.188;21.024;2022-09-03T04:00:19;5.70;;;2.97;;
31402;SDS011;18039;52.188;21.024;2022-09-03T04:02:46;7.60;;;3.08;;
31402;SDS011;18039;52.188;21.024;2022-09-03T04:05:13;7.75;;;3.47;;
31402;SDS011;18039;52.188;21.024;2022-09-03T04:07:44;6.75;;;3.30;;
31402;SDS011;18039;52.188;21.024;2022-09-03T04:10:11;5.75;;;3.03;;
31402;SDS011;18039;52.188;21.024;2022-09-03T04:12:38;11.05;;;3.33;;
31402;SDS011;18039;52.188;21.024;2022-09-03T04:15:06;8.27;;;2.90;;
31402;SDS011;18039;52.188;21.024;2022-09-03T04:17:33;6.05;;;3.40;;
31402;SDS011;18039;52.188;21.024;2022-09-03T04:20:00;11.30;;;3.50;;
31402;SDS011;18039;52.188;21.024;2022-09-03T04:22:27;11.15;;;3.25;;
31402;SDS011;18039;52.188;21.024;2022-09-03T04:24:55;6.45;;;3.00;;
31402;SDS011;18039;52.188;21.024;2022-09-03T04:27:22;8.88;;;3.08;;
31402;SDS011;18039;52.188;21.024;2022-09-03T04:29:49;8.10;;;3.65;;
31402;SDS011;18039;52.188;21.024;2022-09-03T04:32:16;7.38;;;2.97;;
31402;SDS011;18039;52.188;21.024;2022-09-03T04:35:09;5.00;;;3.20;;
31402;SDS011;18039;52.188;21.024;2022-09-03T04:37:36;8.05;;;2.83;;
31402;SDS011;18039;52.188;21.024;2022-09-03T04:40:03;7.25;;;3.45;;
31402;SDS011;18039;52.188;21.024;2022-09-03T04:42:30;6.18;;;3.35;;
31402;SDS011;18039;52.188;21.024;2022-09-03T04:44:58;8.52;;;3.78;;
31402;SDS011;18039;52.188;21.024;2022-09-03T04:47:25;9.55;;;3.42;;
31402;SDS011;18039;52.188;21.024;2022-09-03T04:49:53;10.98;;;3.53;;
31402;SDS011;18039;52.188;21.024;2022-09-03T04:52:20;7.88;;;3.72;;
31402;SDS011;18039;52.188;21.024;2022-09-03T04:54:48;6.03;;;3.40;;
31402;SDS011;18039;52.188;21.024;2022-09-03T04:57:15;6.93;;;3.42;;
31402;SDS011;18039;52.188;21.024;2022-09-03T04:59:42;6.55;;;3.65;;
31402;SDS011;18039;52.188;21.024;2022-09-03T05:02:09;9.65;;;3.13;;
31402;SDS011;18039;52.188;21.024;2022-09-03T05:04:36;7.93;;;3.20;;
31402;SDS011;18039;52.188;21.024;2022-09-03T05:07:03;10.23;;;3.25;;
31402;SDS011;18039;52.188;21.024;2022-09-03T05:09:30;6.60;;;2.58;;
31402;SDS011;18039;52.188;21.024;2022-09-03T05:11:57;6.60;;;2.70;;
31402;SDS011;18039;52.188;21.024;2022-09-03T05:14:24;9.48;;;2.70;;
31402;SDS011;18039;52.188;21.024;2022-09-03T05:16:51;5.05;;;2.70;;
31402;SDS011;18039;52.188;21.024;2022-09-03T05:19:19;8.45;;;2.80;;
31402;SDS011;18039;52.188;21.024;2022-09-03T05:21:46;7.20;;;2.50;;
31402;SDS011;18039;52.188;21.024;2022-09-03T05:24:13;8.23;;;2.90;;
31402;SDS011;18039;52.188;21.024;2022-09-03T05:26:40;5.88;;;2.50;;
31402;SDS011;18039;52.188;21.024;2022-09-03T05:29:08;7.38;;;2.58;;
31402;SDS011;18039;52.188;21.024;2022-09-03T05:31:36;7.15;;;2.67;;
31402;SDS011;18039;52.188;21.024;2022-09-03T05:34:05;5.50;;;2.53;;
31402;SDS011;18039;52.188;21.024;2022-09-03T05:36:33;9.68;;;2.95;;
31402;SDS011;18039;52.188;21.024;2022-09-03T05:39:03;5.85;;;2.25;;
31402;SDS011;18039;52.188;21.024;2022-09-03T05:41:31;5.55;;;2.88;;
31402;SDS011;18039;52.188;21.024;2022-09-03T05:44:00;6.15;;;2.40;;
31402;SDS011;18039;52.188;21.024;2022-09-03T05:46:31;4.88;;;2.47;;
31402;SDS011;18039;52.188;21.024;2022-09-03T05:48:59;6.45;;;2.60;;
31402;SDS011;18039;52.188;21.024;2022-09-03T05:51:28;11.18;;;3.05;;
31402;SDS011;18039;52.188;21.024;2022-09-03T05:53:56;5.10;;;2.40;;
31402;SDS011;18039;52.188;21.024;2022-09-03T05:56:24;5.70;;;1.83;;
31402;SDS011;18039;52.188;21.024;2022-09-03T05:58:54;5.07;;;2.33;;
31402;SDS011;18039;52.188;21.024;2022-09-03T06:01:24;4.00;;;2.22;;
31402;SDS011;18039;52.188;21.024;2022-09-03T06:03:55;5.97;;;2.30;;
31402;SDS011;18039;52.188;21.024;2022-09-03T06:06:26;5.22;;;2.30;;
31402;SDS011;18039;52.188;21.024;2022-09-03T06:08:55;5.15;;;2.28;;
31402;SDS011;18039;52.188;21.024;2022-09-03T06:11:24;8.30;;;2.08;;
31402;SDS011;18039;52.188;21.024;2022-09-03T06:13:58;5.32;;;2.28;;
31402;SDS011;18039;52.188;21.024;2022-09-03T06:16:28;3.90;;;1.80;;
31402;SDS011;18039;52.188;21.024;2022-09-03T06:18:58;4.20;;;2.10;;
31402;SDS011;18039;52.188;21.024;2022-09-03T06:21:26;5.75;;;2.20;;
31402;SDS011;18039;52.188;21.024;2022-09-03T06:23:55;4.85;;;2.30;;
31402;SDS011;18039;52.188;21.024;2022-09-03T06:26:26;5.53;;;2.13;;
31402;SDS011;18039;52.188;21.024;2022-09-03T06:28:55;4.68;;;2.10;;
31402;SDS011;18039;52.188;21.024;2022-09-03T06:31:23;12.65;;;3.00;;
31402;SDS011;18039;52.188;21.024;2022-09-03T06:33:51;7.32;;;2.17;;
31402;SDS011;18039;52.188;21.024;2022-09-03T06:36:21;6.30;;;2.30;;
31402;SDS011;18039;52.188;21.024;2022-09-03T06:38:50;4.30;;;2.20;;
31402;SDS011;18039;52.188;21.024;2022-09-03T06:41:20;6.82;;;2.10;;
31402;SDS011;18039;52.188;21.024;2022-09-03T06:43:53;4.75;;;2.25;;
31402;SDS011;18039;52.188;21.024;2022-09-03T06:46:24;4.88;;;1.90;;
31402;SDS011;18039;52.188;21.024;2022-09-03T06:48:51;6.82;;;2.20;;
31402;SDS011;18039;52.188;21.024;2022-09-03T06:51:20;3.67;;;2.33;;
31402;SDS011;18039;52.188;21.024;2022-09-03T06:53:50;5.28;;;2.17;;
31402;SDS011;18039;52.188;21.024;2022-09-03T06:56:21;5.30;;;2.63;;
31402;SDS011;18039;52.188;21.024;2022-09-03T06:58:52;8.48;;;2.35;;
31402;SDS011;18039;52.188;21.024;2022-09-03T07:01:22;4.15;;;1.77;;
31402;SDS011;18039;52.188;21.024;2022-09-03T07:03:55;12.80;;;2.13;;
31402;SDS011;18039;52.188;21.024;2022-09-03T07:06:27;3.35;;;1.90;;
31402;SDS011;18039;52.188;21.024;2022-09-03T07:08:57;4.47;;;1.95;;
31402;SDS011;18039;52.188;21.024;2022-09-03T07:11:26;5.03;;;1.63;;
31402;SDS011;18039;52.188;21.024;2022-09-03T07:16:28;4.25;;;1.70;;
31402;SDS011;18039;52.188;21.024;2022-09-03T07:19:00;2.70;;;1.60;;
31402;SDS011;18039;52.188;21.024;2022-09-03T07:21:30;3.08;;;1.58;;
31402;SDS011;18039;52.188;21.024;2022-09-03T07:23:59;5.82;;;2.00;;
31402;SDS011;18039;52.188;21.024;2022-09-03T07:26:27;4.00;;;1.70;;
31402;SDS011;18039;52.188;21.024;2022-09-03T07:28:56;3.17;;;2.10;;
31402;SDS011;18039;52.188;21.024;2022-09-03T07:31:27;5.45;;;1.90;;
31402;SDS011;18039;52.188;21.024;2022-09-03T07:33:58;5.13;;;1.65;;
31402;SDS011;18039;52.188;21.024;2022-09-03T07:36:39;5.85;;;1.75;;
31402;SDS011;18039;52.188;21.024;2022-09-03T07:39:10;6.82;;;2.00;;
31402;SDS011;18039;52.188;21.024;2022-09-03T07:41:38;6.85;;;2.05;;
31402;SDS011;18039;52.188;21.024;2022-09-03T07:44:15;4.07;;;1.77;;
31402;SDS011;18039;52.188;21.024;2022-09-03T07:46:45;3.67;;;1.65;;
31402;SDS011;18039;52.188;21.024;2022-09-03T07:49:14;9.98;;;2.17;;
31402;SDS011;18039;52.188;21.024;2022-09-03T07:51:41;3.20;;;1.67;;
31402;SDS011;18039;52.188;21.024;2022-09-03T07:54:09;4.80;;;1.85;;
31402;SDS011;18039;52.188;21.024;2022-09-03T07:56:38;8.00;;;1.88;;
31402;SDS011;18039;52.188;21.024;2022-09-03T07:59:06;2.92;;;1.40;;
31402;SDS011;18039;52.188;21.024;2022-09-03T08:01:33;5.80;;;1.50;;
31402;SDS011;18039;52.188;21.024;2022-09-03T08:04:01;7.10;;;1.95;;
31402;SDS011;18039;52.188;21.024;2022-09-03T08:06:30;2.30;;;1.30;;
31402;SDS011;18039;52.188;21.024;2022-09-03T08:09:00;3.38;;;1.30;;
31402;SDS011;18039;52.188;21.024;2022-09-03T08:11:32;3.15;;;1.60;;
31402;SDS011;18039;52.188;21.024;2022-09-03T08:14:04;3.38;;;1.58;;
31402;SDS011;18039;52.188;21.024;2022-09-03T08:16:34;2.28;;;1.50;;
31402;SDS011;18039;52.188;21.024;2022-09-03T08:19:06;4.00;;;1.27;;
31402;SDS011;18039;52.188;21.024;2022-09-03T08:21:34;3.17;;;1.40;;
31402;SDS011;18039;52.188;21.024;2022-09-03T08:24:01;5.28;;;1.90;;
31402;SDS011;18039;52.188;21.024;2022-09-03T08:26:30;4.05;;;2.30;;
31402;SDS011;18039;52.188;21.024;2022-09-03T08:29:02;2.88;;;1.50;;
31402;SDS011;18039;52.188;21.024;2022-09-03T08:31:30;4.18;;;1.23;;
31402;SDS011;18039;52.188;21.024;2022-09-03T08:33:59;3.78;;;1.60;;
31402;SDS011;18039;52.188;21.024;2022-09-03T08:36:36;6.95;;;1.70;;
31402;SDS011;18039;52.188;21.024;2022-09-03T08:39:05;2.83;;;1.20;;
31402;SDS011;18039;52.188;21.024;2022-09-03T08:52:40;5.25;;;1.27;;
31402;SDS011;18039;52.188;21.024;2022-09-03T09:06:34;2.97;;;1.23;;
31402;SDS011;18039;52.188;21.024;2022-09-03T09:09:29;4.40;;;1.50;;
31402;SDS011;18039;52.188;21.024;2022-09-03T09:12:14;4.30;;;1.90;;
31402;SDS011;18039;52.188;21.024;2022-09-03T09:15:08;5.30;;;1.55;;
31402;SDS011;18039;52.188;21.024;2022-09-03T09:23:32;4.32;;;1.60;;
31402;SDS011;18039;52.188;21.024;2022-09-03T09:26:03;6.82;;;1.77;;
31402;SDS011;18039;52.188;21.024;2022-09-03T09:28:35;2.47;;;1.40;;
31402;SDS011;18039;52.188;21.024;2022-09-03T09:31:05;2.78;;;1.40;;
31402;SDS011;18039;52.188;21.024;2022-09-03T09:36:04;5.50;;;1.08;;
31402;SDS011;18039;52.188;21.024;2022-09-03T09:38:36;2.22;;;1.20;;
31402;SDS011;18039;52.188;21.024;2022-09-03T09:41:11;1.83;;;0.95;;
31402;SDS011;18039;52.188;21.024;2022-09-03T09:43:41;2.90;;;1.08;;
31402;SDS011;18039;52.188;21.024;2022-09-03T09:46:18;3.08;;;1.30;;
31402;SDS011;18039;52.188;21.024;2022-09-03T09:51:26;2.60;;;1.15;;
31402;SDS011;18039;52.188;21.024;2022-09-03T09:54:23;2.13;;;1.15;;
31402;SDS011;18039;52.188;21.024;2022-09-03T09:57:00;1.60;;;1.10;;
31402;SDS011;18039;52.188;21.024;2022-09-03T09:59:29;2.15;;;1.10;;
31402;SDS011;18039;52.188;21.024;2022-09-03T10:02:08;3.22;;;1.35;;
31402;SDS011;18039;52.188;21.024;2022-09-03T10:04:43;1.73;;;0.98;;
31402;SDS011;18039;52.188;21.024;2022-09-03T10:07:22;1.70;;;0.88;;
31402;SDS011;18039;52.188;21.024;2022-09-03T10:13:08;4.85;;;1.08;;
31402;SDS011;18039;52.188;21.024;2022-09-03T10:15:49;1.50;;;0.95;;
31402;SDS011;18039;52.188;21.024;2022-09-03T10:21:21;1.98;;;0.80;;
31402;SDS011;18039;52.188;21.024;2022-09-03T10:26:49;2.42;;;1.10;;
31402;SDS011;18039;52.188;21.024;2022-09-03T10:29:17;1.65;;;0.77;;
31402;SDS011;18039;52.188;21.024;2022-09-03T10:48:21;3.53;;;0.80;;
31402;SDS011;18039;52.188;21.024;2022-09-03T10:51:05;4.32;;;1.10;;
31402;SDS011;18039;52.188;21.024;2022-09-03T10:56:53;5.95;;;1.13;;
31402;SDS011;18039;52.188;21.024;2022-09-03T10:59:38;5.30;;;0.98;;
31402;SDS011;18039;52.188;21.024;2022-09-03T11:07:35;0.88;;;0.57;;
31402;SDS011;18039;52.188;21.024;2022-09-03T11:15:51;2.63;;;1.00;;
31402;SDS011;18039;52.188;21.024;2022-09-03T11:18:24;3.10;;;1.13;;
31402;SDS011;18039;52.188;21.024;2022-09-03T11:21:13;3.53;;;1.20;;
31402;SDS011;18039;52.188;21.024;2022-09-03T11:23:43;4.32;;;0.80;;
31402;SDS011;18039;52.188;21.024;2022-09-03T11:26:17;3.15;;;0.80;;
31402;SDS011;18039;52.188;21.024;2022-09-03T11:29:08;1.75;;;0.95;;
31402;SDS011;18039;52.188;21.024;2022-09-03T11:34:13;3.72;;;0.80;;
31402;SDS011;18039;52.188;21.024;2022-09-03T11:37:04;1.60;;;0.98;;
31402;SDS011;18039;52.188;21.024;2022-09-03T11:39:34;3.60;;;0.80;;
31402;SDS011;18039;52.188;21.024;2022-09-03T11:42:09;4.07;;;1.08;;
31402;SDS011;18039;52.188;21.024;2022-09-03T11:44:42;1.67;;;0.75;;
31402;SDS011;18039;52.188;21.024;2022-09-03T11:47:21;1.42;;;1.00;;
31402;SDS011;18039;52.188;21.024;2022-09-03T11:49:51;4.20;;;1.05;;
31402;SDS011;18039;52.188;21.024;2022-09-03T11:52:30;3.50;;;1.00;;
31402;SDS011;18039;52.188;21.024;2022-09-03T11:54:58;4.28;;;1.27;;
31402;SDS011;18039;52.188;21.024;2022-09-03T11:57:26;5.93;;;1.13;;
31402;SDS011;18039;52.188;21.024;2022-09-03T12:00:09;3.13;;;1.00;;
31402;SDS011;18039;52.188;21.024;2022-09-03T12:02:42;3.92;;;1.13;;
31402;SDS011;18039;52.188;21.024;2022-09-03T12:10:48;1.65;;;0.95;;
31402;SDS011;18039;52.188;21.024;2022-09-03T12:19:41;2.00;;;0.80;;
31402;SDS011;18039;52.188;21.024;2022-09-03T12:22:19;2.10;;;0.88;;
31402;SDS011;18039;52.188;21.024;2022-09-03T12:24:48;4.65;;;1.10;;
31402;SDS011;18039;52.188;21.024;2022-09-03T12:27:20;3.90;;;1.20;;
31402;SDS011;18039;52.188;21.024;2022-09-03T12:29:55;1.77;;;0.70;;
31402;SDS011;18039;52.188;21.024;2022-09-03T12:32:28;1.17;;;0.73;;
31402;SDS011;18039;52.188;21.024;2022-09-03T12:35:17;1.63;;;0.80;;
31402;SDS011;18039;52.188;21.024;2022-09-03T12:38:05;1.95;;;0.90;;
31402;SDS011;18039;52.188;21.024;2022-09-03T12:40:39;3.97;;;0.90;;
31402;SDS011;18039;52.188;21.024;2022-09-03T12:43:29;4.78;;;1.17;;
31402;SDS011;18039;52.188;21.024;2022-09-03T12:46:12;3.67;;;1.00;;
31402;SDS011;18039;52.188;21.024;2022-09-03T12:51:42;2.80;;;0.75;;
31402;SDS011;18039;52.188;21.024;2022-09-03T12:54:19;1.50;;;0.77;;
31402;SDS011;18039;52.188;21.024;2022-09-03T12:56:50;2.88;;;1.15;;
31402;SDS011;18039;52.188;21.024;2022-09-03T12:59:22;4.03;;;1.30;;
31402;SDS011;18039;52.188;21.024;2022-09-03T13:01:57;6.65;;;4.30;;
31402;SDS011;18039;52.188;21.024;2022-09-03T13:04:32;3.55;;;1.00;;
31402;SDS011;18039;52.188;21.024;2022-09-03T13:07:06;4.10;;;1.15;;
31402;SDS011;18039;52.188;21.024;2022-09-03T13:09:40;3.58;;;0.90;;
31402;SDS011;18039;52.188;21.024;2022-09-03T13:12:21;3.95;;;0.88;;
31402;SDS011;18039;52.188;21.024;2022-09-03T13:14:55;1.40;;;0.85;;
31402;SDS011;18039;52.188;21.024;2022-09-03T13:31:46;3.20;;;1.38;;
31402;SDS011;18039;52.188;21.024;2022-09-03T13:34:36;5.53;;;1.55;;
31402;SDS011;18039;52.188;21.024;2022-09-03T13:37:30;3.95;;;0.95;;
31402;SDS011;18039;52.188;21.024;2022-09-03T13:42:51;2.28;;;1.00;;
31402;SDS011;18039;52.188;21.024;2022-09-03T13:47:58;2.33;;;1.00;;
31402;SDS011;18039;52.188;21.024;2022-09-03T13:50:52;2.30;;;0.98;;
31402;SDS011;18039;52.188;21.024;2022-09-03T13:58:56;1.67;;;0.75;;
31402;SDS011;18039;52.188;21.024;2022-09-03T14:02:06;5.70;;;1.00;;
31402;SDS011;18039;52.188;21.024;2022-09-03T14:07:24;4.63;;;1.45;;
31402;SDS011;18039;52.188;21.024;2022-09-03T14:10:17;4.88;;;1.50;;
31402;SDS011;18039;52.188;21.024;2022-09-03T14:12:49;3.67;;;0.90;;
31402;SDS011;18039;52.188;21.024;2022-09-03T14:18:38;3.42;;;1.00;;
31402;SDS011;18039;52.188;21.024;2022-09-03T14:21:20;1.85;;;1.00;;
31402;SDS011;18039;52.188;21.024;2022-09-03T14:26:49;2.07;;;0.93;;
31402;SDS011;18039;52.188;21.024;2022-09-03T14:29:22;1.17;;;0.65;;
31402;SDS011;18039;52.188;21.024;2022-09-03T14:40:20;1.73;;;0.63;;
31402;SDS011;18039;52.188;21.024;2022-09-03T14:49:02;5.28;;;0.90;;
31402;SDS011;18039;52.188;21.024;2022-09-03T14:52:01;2.28;;;0.85;;
31402;SDS011;18039;52.188;21.024;2022-09-03T15:09:59;2.47;;;0.90;;
31402;SDS011;18039;52.188;21.024;2022-09-03T15:12:38;5.43;;;1.50;;
31402;SDS011;18039;52.188;21.024;2022-09-03T15:15:16;8.35;;;1.77;;
31402;SDS011;18039;52.188;21.024;2022-09-03T15:17:53;4.82;;;1.55;;
31402;SDS011;18039;52.188;21.024;2022-09-03T15:23:11;5.60;;;1.83;;
31402;SDS011;18039;52.188;21.024;2022-09-03T15:26:09;5.85;;;1.73;;
31402;SDS011;18039;52.188;21.024;2022-09-03T15:37:26;2.10;;;1.33;;
31402;SDS011;18039;52.188;21.024;2022-09-03T15:40:00;2.75;;;1.20;;
31402;SDS011;18039;52.188;21.024;2022-09-03T15:42:35;4.03;;;1.10;;
31402;SDS011;18039;52.188;21.024;2022-09-03T15:45:04;4.78;;;1.20;;
31402;SDS011;18039;52.188;21.024;2022-09-03T15:53:31;4.25;;;1.23;;
31402;SDS011;18039;52.188;21.024;2022-09-03T15:56:07;2.70;;;1.15;;
31402;SDS011;18039;52.188;21.024;2022-09-03T16:01:25;3.47;;;1.45;;
31402;SDS011;18039;52.188;21.024;2022-09-03T16:06:44;3.00;;;1.35;;
31402;SDS011;18039;52.188;21.024;2022-09-03T16:09:31;3.08;;;1.30;;
31402;SDS011;18039;52.188;21.024;2022-09-03T16:12:15;3.45;;;1.23;;
31402;SDS011;18039;52.188;21.024;2022-09-03T16:15:22;3.20;;;1.30;;
31402;SDS011;18039;52.188;21.024;2022-09-03T16:23:00;5.38;;;1.77;;
31402;SDS011;18039;52.188;21.024;2022-09-03T16:25:54;3.33;;;1.38;;
31402;SDS011;18039;52.188;21.024;2022-09-03T16:31:36;2.15;;;1.40;;
31402;SDS011;18039;52.188;21.024;2022-09-03T16:34:38;4.95;;;1.60;;
31402;SDS011;18039;52.188;21.024;2022-09-03T16:37:17;5.60;;;1.70;;
31402;SDS011;18039;52.188;21.024;2022-09-03T16:39:59;7.38;;;2.70;;
31402;SDS011;18039;52.188;21.024;2022-09-03T16:45:30;5.53;;;1.85;;
31402;SDS011;18039;52.188;21.024;2022-09-03T16:48:16;7.32;;;2.13;;
31402;SDS011;18039;52.188;21.024;2022-09-03T16:50:55;6.93;;;2.28;;
31402;SDS011;18039;52.188;21.024;2022-09-03T16:56:47;3.65;;;2.00;;
31402;SDS011;18039;52.188;21.024;2022-09-03T17:16:10;4.57;;;2.65;;
31402;SDS011;18039;52.188;21.024;2022-09-03T17:19:09;5.00;;;2.78;;
31402;SDS011;18039;52.188;21.024;2022-09-03T17:21:49;5.80;;;2.65;;
31402;SDS011;18039;52.188;21.024;2022-09-03T17:25:01;8.68;;;2.67;;
31402;SDS011;18039;52.188;21.024;2022-09-03T17:30:23;6.57;;;3.00;;
31402;SDS011;18039;52.188;21.024;2022-09-03T17:33:10;5.63;;;2.63;;
31402;SDS011;18039;52.188;21.024;2022-09-03T17:49:51;11.18;;;2.90;;
31402;SDS011;18039;52.188;21.024;2022-09-03T17:52:24;7.78;;;2.60;;
31402;SDS011;18039;52.188;21.024;2022-09-03T17:55:10;5.72;;;2.70;;
31402;SDS011;18039;52.188;21.024;2022-09-03T17:57:44;5.47;;;2.00;;
31402;SDS011;18039;52.188;21.024;2022-09-03T18:00:21;7.00;;;2.38;;
31402;SDS011;18039;52.188;21.024;2022-09-03T18:02:52;10.95;;;3.25;;
31402;SDS011;18039;52.188;21.024;2022-09-03T18:05:43;5.93;;;2.95;;
31402;SDS011;18039;52.188;21.024;2022-09-03T18:08:17;8.85;;;2.95;;
31402;SDS011;18039;52.188;21.024;2022-09-03T18:16:30;5.68;;;2.53;;
31402;SDS011;18039;52.188;21.024;2022-09-03T18:19:07;9.65;;;2.85;;
31402;SDS011;18039;52.188;21.024;2022-09-03T18:21:58;7.03;;;2.70;;
31402;SDS011;18039;52.188;21.024;2022-09-03T18:24:51;7.45;;;3.03;;
31402;SDS011;18039;52.188;21.024;2022-09-03T18:27:45;6.80;;;3.20;;
31402;SDS011;18039;52.188;21.024;2022-09-03T18:30:33;7.50;;;3.50;;
31402;SDS011;18039;52.188;21.024;2022-09-03T18:33:20;5.80;;;3.40;;
31402;SDS011;18039;52.188;21.024;2022-09-03T18:36:09;7.63;;;3.13;;
31402;SDS011;18039;52.188;21.024;2022-09-03T18:39:02;9.18;;;3.42;;
31402;SDS011;18039;52.188;21.024;2022-09-03T18:41:59;12.55;;;3.58;;
31402;SDS011;18039;52.188;21.024;2022-09-03T18:54:08;30.48;;;14.13;;
31402;SDS011;18039;52.188;21.024;2022-09-03T18:57:29;36.42;;;15.38;;
31402;SDS011;18039;52.188;21.024;2022-09-03T19:00:34;39.05;;;17.77;;
31402;SDS011;18039;52.188;21.024;2022-09-03T19:03:37;30.23;;;13.00;;
31402;SDS011;18039;52.188;21.024;2022-09-03T19:06:38;28.85;;;11.90;;
31402;SDS011;18039;52.188;21.024;2022-09-03T19:09:38;13.70;;;6.13;;
31402;SDS011;18039;52.188;21.024;2022-09-03T19:12:37;10.70;;;4.50;;
31402;SDS011;18039;52.188;21.024;2022-09-03T19:16:03;7.68;;;3.53;;
31402;SDS011;18039;52.188;21.024;2022-09-03T19:22:05;8.35;;;3.92;;
31402;SDS011;18039;52.188;21.024;2022-09-03T19:25:03;9.02;;;4.32;;
31402;SDS011;18039;52.188;21.024;2022-09-03T19:27:59;14.50;;;4.28;;
31402;SDS011;18039;52.188;21.024;2022-09-03T19:34:27;9.18;;;4.32;;
31402;SDS011;18039;52.188;21.024;2022-09-03T19:37:20;6.97;;;4.05;;
31402;SDS011;18039;52.188;21.024;2022-09-03T19:43:41;8.27;;;3.83;;
31402;SDS011;18039;52.188;21.024;2022-09-03T19:46:39;15.88;;;4.57;;
31402;SDS011;18039;52.188;21.024;2022-09-03T19:52:38;13.85;;;4.00;;
31402;SDS011;18039;52.188;21.024;2022-09-03T19:55:40;9.48;;;3.83;;
31402;SDS011;18039;52.188;21.024;2022-09-03T19:58:34;16.77;;;5.13;;
31402;SDS011;18039;52.188;21.024;2022-09-03T20:01:22;12.25;;;3.88;;
31402;SDS011;18039;52.188;21.024;2022-09-03T20:04:16;8.10;;;3.97;;
31402;SDS011;18039;52.188;21.024;2022-09-03T20:07:04;14.05;;;3.78;;
31402;SDS011;18039;52.188;21.024;2022-09-03T20:09:55;7.80;;;4.00;;
31402;SDS011;18039;52.188;21.024;2022-09-03T20:13:08;10.90;;;4.18;;
31402;SDS011;18039;52.188;21.024;2022-09-03T20:21:04;10.35;;;3.72;;